Terminal Aerodrome Forecast
Issued by NWS Twin Cities, MN

Home | Current Version | Previous Version | Text Only | Print | Product List | Glossary On
Versions: 1 2 3 4 5 6 7 8 9 10 11 12 13 14 15 16 17 18 19 20 21 22 23 24 25 26 27 28 29 30 31 32
972
FTUS43 KMPX 302337
TAFMSP
TAF
KMSP 302337Z 0100/0206 05008KT P6SM FEW040
     FM010300 05006KT P6SM BKN040
     FM010900 04004KT 6SM BR BKN025 OVC040
     FM011400 06006KT P6SM SCT025 OVC040
     FM011800 06007KT P6SM SCT025 BKN040=

USA.gov is the U.S. government's official web portal to all federal, state and local government web resources and services.